createdAt,value
2019-03-30T00:00:02.960Z,1025.53
2019-03-30T00:00:28.966Z,1025.53
2019-03-30T00:00:55.052Z,1025.52
2019-03-30T00:01:20.979Z,1025.53
2019-03-30T00:01:46.968Z,1025.5
2019-03-30T00:02:13.045Z,1025.51
2019-03-30T00:02:38.967Z,1025.49
2019-03-30T00:03:05.047Z,1025.49
2019-03-30T00:03:30.971Z,1025.48
2019-03-30T00:03:56.970Z,1025.5
2019-03-30T00:04:23.345Z,1025.47
2019-03-30T00:04:48.975Z,1025.48
2019-03-30T00:05:15.075Z,1025.49
2019-03-30T00:05:40.995Z,1025.49
2019-03-30T00:06:07.064Z,1025.47
2019-03-30T00:06:33.151Z,1025.48
2019-03-30T00:06:58.977Z,1025.5
2019-03-30T00:07:25.061Z,1025.47
2019-03-30T00:07:50.981Z,1025.46
2019-03-30T00:08:16.975Z,1025.48
2019-03-30T00:08:42.979Z,1025.47
2019-03-30T00:09:08.986Z,1025.47
2019-03-30T00:09:35.067Z,1025.46
2019-03-30T00:10:01.092Z,1025.46
2019-03-30T00:10:27.067Z,1025.46
2019-03-30T00:10:52.974Z,1025.44
2019-03-30T00:11:18.981Z,1025.4
2019-03-30T00:11:45.071Z,1025.41
2019-03-30T00:12:10.988Z,1025.43
2019-03-30T00:12:36.984Z,1025.41
2019-03-30T00:13:03.159Z,1025.4
2019-03-30T00:13:29.065Z,1025.4
2019-03-30T00:13:55.070Z,1025.36
2019-03-30T00:14:20.983Z,1025.38
2019-03-30T00:14:46.987Z,1025.37
2019-03-30T00:15:12.990Z,1025.36
2019-03-30T00:15:38.993Z,1025.35
2019-03-30T00:16:05.089Z,1025.36
2019-03-30T00:16:31.066Z,1025.35
2019-03-30T00:16:56.986Z,1025.33
2019-03-30T00:17:22.987Z,1025.35
2019-03-30T00:17:48.987Z,1025.33
2019-03-30T00:18:15.084Z,1025.34
2019-03-30T00:18:40.988Z,1025.34
2019-03-30T00:19:07.627Z,1025.31
2019-03-30T00:19:33.063Z,1025.32
2019-03-30T00:19:59.003Z,1025.29
2019-03-30T00:20:25.874Z,1025.32
2019-03-30T00:20:51.001Z,1025.29
2019-03-30T00:21:17.010Z,1025.26
2019-03-30T00:21:43.002Z,1025.29
2019-03-30T00:22:09.000Z,1025.31
2019-03-30T00:22:35.103Z,1025.29
2019-03-30T00:23:01.101Z,1025.28
2019-03-30T00:23:26.997Z,1025.27
2019-03-30T00:23:53.070Z,1025.25
2019-03-30T00:24:19.001Z,1025.25
2019-03-30T00:24:45.104Z,1025.26
2019-03-30T00:25:11.104Z,1025.27
2019-03-30T00:25:37.015Z,1025.25
2019-03-30T00:26:03.020Z,1025.23
2019-03-30T00:26:29.083Z,1025.27
2019-03-30T00:26:55.087Z,1025.24
2019-03-30T00:27:21.104Z,1025.23
2019-03-30T00:27:47.009Z,1025.23
2019-03-30T00:28:13.015Z,1025.21
2019-03-30T00:28:39.016Z,1025.23
2019-03-30T00:29:05.101Z,1025.23
2019-03-30T00:29:31.190Z,1025.19
2019-03-30T00:29:57.016Z,1025.21
2019-03-30T00:30:23.017Z,1025.22
2019-03-30T00:30:49.016Z,1025.19
2019-03-30T00:31:15.114Z,1025.18
2019-03-30T00:31:41.118Z,1025.17
2019-03-30T00:32:07.024Z,1025.19
2019-03-30T00:32:33.225Z,1025.18
2019-03-30T00:32:59.025Z,1025.17
2019-03-30T00:33:25.110Z,1025.15
2019-03-30T00:33:51.118Z,1025.13
2019-03-30T00:34:17.019Z,1025.14
2019-03-30T00:34:43.026Z,1025.15
2019-03-30T00:35:09.023Z,1025.14
2019-03-30T00:35:35.179Z,1025.14
2019-03-30T00:36:01.139Z,1025.13
2019-03-30T00:36:27.016Z,1025.14
2019-03-30T00:36:53.030Z,1025.13
2019-03-30T00:37:19.022Z,1025.13
2019-03-30T00:37:45.110Z,1025.11
2019-03-30T00:38:11.485Z,1025.09
2019-03-30T00:38:37.024Z,1025.13
2019-03-30T00:39:03.114Z,1025.12
2019-03-30T00:39:29.019Z,1025.1
2019-03-30T00:39:55.115Z,1025.08
2019-03-30T00:40:21.131Z,1025.05
2019-03-30T00:40:47.032Z,1025.08
2019-03-30T00:41:13.037Z,1025.08
2019-03-30T00:41:39.024Z,1025.09
2019-03-30T00:42:05.132Z,1025.05
2019-03-30T00:42:31.213Z,1025.05
2019-03-30T00:42:57.023Z,1025.06
2019-03-30T00:43:23.031Z,1025.02
2019-03-30T00:43:49.033Z,1025.04
2019-03-30T00:44:15.132Z,1025.03
2019-03-30T00:44:41.127Z,1024.98
2019-03-30T00:45:07.044Z,1024.99
2019-03-30T00:45:33.120Z,1025
2019-03-30T00:45:59.024Z,1025
2019-03-30T00:46:25.114Z,1024.97
2019-03-30T00:46:51.133Z,1024.97
2019-03-30T00:47:17.032Z,1024.95
2019-03-30T00:47:43.039Z,1024.94
2019-03-30T00:48:09.044Z,1024.99
2019-03-30T00:48:35.205Z,1024.97
2019-03-30T00:49:01.245Z,1024.96
2019-03-30T00:49:27.035Z,1024.95
2019-03-30T00:49:53.045Z,1024.95
2019-03-30T00:50:19.038Z,1024.95
2019-03-30T00:50:45.135Z,1024.94
2019-03-30T00:51:11.138Z,1024.94
2019-03-30T00:51:37.045Z,1024.94
2019-03-30T00:52:03.975Z,1024.94
2019-03-30T00:52:29.047Z,1024.94
2019-03-30T00:52:55.202Z,1024.9
2019-03-30T00:53:21.140Z,1024.89
2019-03-30T00:53:47.041Z,1024.88
2019-03-30T00:54:13.050Z,1024.9
2019-03-30T00:54:39.049Z,1024.89
2019-03-30T00:55:05.144Z,1024.9
2019-03-30T00:55:31.155Z,1024.86
2019-03-30T00:55:57.124Z,1024.88
2019-03-30T00:56:23.047Z,1024.88
2019-03-30T00:56:49.045Z,1024.89
2019-03-30T00:57:15.139Z,1024.87
2019-03-30T00:57:41.150Z,1024.87
2019-03-30T00:58:07.056Z,1024.86
2019-03-30T00:58:33.062Z,1024.84
2019-03-30T00:58:59.053Z,1024.85
2019-03-30T00:59:25.141Z,1024.83
2019-03-30T00:59:51.152Z,1024.85
2019-03-30T01:00:17.044Z,1024.84
2019-03-30T01:00:43.057Z,1024.84
2019-03-30T01:01:09.057Z,1024.84
2019-03-30T01:01:35.255Z,1024.86
2019-03-30T01:02:01.918Z,1024.84
2019-03-30T01:02:27.546Z,1024.87
2019-03-30T01:02:53.064Z,1024.84
2019-03-30T01:03:19.127Z,1024.85
2019-03-30T01:03:45.144Z,1024.84
2019-03-30T01:04:11.162Z,1024.85
2019-03-30T01:04:37.062Z,1024.86
2019-03-30T01:05:03.063Z,1024.88
2019-03-30T01:05:29.064Z,1024.85
2019-03-30T01:05:55.221Z,1024.85
2019-03-30T01:06:21.153Z,1024.83
2019-03-30T01:06:47.059Z,1024.84
2019-03-30T01:07:13.088Z,1024.86
2019-03-30T01:07:39.068Z,1024.85
2019-03-30T01:08:05.158Z,1024.86
2019-03-30T01:08:31.172Z,1024.83
2019-03-30T01:08:57.062Z,1024.85
2019-03-30T01:09:23.072Z,1024.84
2019-03-30T01:09:49.063Z,1024.81
2019-03-30T01:10:15.165Z,1024.8
2019-03-30T01:10:41.179Z,1024.79
2019-03-30T01:11:07.071Z,1024.8
2019-03-30T01:11:33.084Z,1024.79
2019-03-30T01:11:59.145Z,1024.78
2019-03-30T01:12:25.240Z,1024.78
2019-03-30T01:12:51.174Z,1024.8
2019-03-30T01:13:17.076Z,1024.79
2019-03-30T01:13:43.085Z,1024.78
2019-03-30T01:14:09.082Z,1024.79
2019-03-30T01:14:35.167Z,1024.79
2019-03-30T01:15:01.204Z,1024.77
2019-03-30T01:15:27.087Z,1024.76
2019-03-30T01:15:53.167Z,1024.75
2019-03-30T01:16:19.072Z,1024.74
2019-03-30T01:16:45.158Z,1024.73
2019-03-30T01:17:11.185Z,1024.74
2019-03-30T01:17:37.082Z,1024.73
2019-03-30T01:18:03.791Z,1024.74
2019-03-30T01:18:29.068Z,1024.72
2019-03-30T01:18:55.200Z,1024.72
2019-03-30T01:19:21.068Z,1024.74
2019-03-30T01:19:47.067Z,1024.74
2019-03-30T01:20:13.092Z,1024.73
2019-03-30T01:20:39.070Z,1024.72
2019-03-30T01:21:05.158Z,1024.74
2019-03-30T01:21:31.073Z,1024.77
2019-03-30T01:21:57.075Z,1024.75
2019-03-30T01:22:23.073Z,1024.74
2019-03-30T01:22:49.082Z,1024.72
2019-03-30T01:23:15.159Z,1024.71
2019-03-30T01:23:41.104Z,1024.69
2019-03-30T01:24:07.076Z,1024.65
2019-03-30T01:24:33.567Z,1024.65
2019-03-30T01:24:59.078Z,1024.67
2019-03-30T01:25:25.394Z,1024.63
2019-03-30T01:25:51.078Z,1024.65
2019-03-30T01:26:17.142Z,1024.64
2019-03-30T01:26:43.082Z,1024.64
2019-03-30T01:27:09.081Z,1024.63
2019-03-30T01:27:35.664Z,1024.6
2019-03-30T01:28:01.110Z,1024.63
2019-03-30T01:28:27.081Z,1024.61
2019-03-30T01:28:53.081Z,1024.58
2019-03-30T01:29:19.084Z,1024.58
2019-03-30T01:29:45.300Z,1024.55
2019-03-30T01:30:11.085Z,1024.57
2019-03-30T01:30:37.085Z,1024.55
2019-03-30T01:31:03.095Z,1024.56
2019-03-30T01:31:29.160Z,1024.55
2019-03-30T01:31:55.178Z,1024.54
2019-03-30T01:32:21.087Z,1024.54
2019-03-30T01:32:47.090Z,1024.56
2019-03-30T01:33:13.089Z,1024.55
2019-03-30T01:33:39.088Z,1024.56
2019-03-30T01:34:05.173Z,1024.55
2019-03-30T01:34:31.095Z,1024.56
2019-03-30T01:34:57.089Z,1024.55
2019-03-30T01:35:23.089Z,1024.57
2019-03-30T01:35:49.091Z,1024.55
2019-03-30T01:36:15.180Z,1024.55
2019-03-30T01:36:41.097Z,1024.53
2019-03-30T01:37:07.095Z,1024.54
2019-03-30T01:37:33.105Z,1024.51
2019-03-30T01:37:59.091Z,1024.51
2019-03-30T01:38:25.176Z,1024.52
2019-03-30T01:38:51.097Z,1024.49
2019-03-30T01:39:17.098Z,1024.5
2019-03-30T01:39:43.098Z,1024.51
2019-03-30T01:40:09.101Z,1024.49
2019-03-30T01:40:35.185Z,1024.47
2019-03-30T01:41:01.121Z,1024.49
2019-03-30T01:41:27.271Z,1024.49
2019-03-30T01:41:53.115Z,1024.46
2019-03-30T01:42:19.110Z,1024.46
2019-03-30T01:42:45.268Z,1024.47
2019-03-30T01:43:11.110Z,1024.46
2019-03-30T01:43:37.109Z,1024.45
2019-03-30T01:44:03.109Z,1024.46
2019-03-30T01:44:29.111Z,1024.48
2019-03-30T01:44:55.196Z,1024.47
2019-03-30T01:45:21.115Z,1024.48
2019-03-30T01:45:47.110Z,1024.47
2019-03-30T01:46:13.193Z,1024.48
2019-03-30T01:46:39.115Z,1024.47
2019-03-30T01:47:05.200Z,1024.5
2019-03-30T01:47:31.117Z,1024.5
2019-03-30T01:47:57.118Z,1024.48
2019-03-30T01:48:23.113Z,1024.47
2019-03-30T01:48:49.120Z,1024.47
2019-03-30T01:49:15.235Z,1024.49
2019-03-30T01:49:41.116Z,1024.48
2019-03-30T01:50:07.121Z,1024.49
2019-03-30T01:50:33.203Z,1024.47
2019-03-30T01:50:59.123Z,1024.46
2019-03-30T01:51:25.210Z,1024.45
2019-03-30T01:51:51.125Z,1024.47
2019-03-30T01:52:17.125Z,1024.44
2019-03-30T01:52:43.119Z,1024.44
2019-03-30T01:53:09.131Z,1024.44
2019-03-30T01:53:35.208Z,1024.43
2019-03-30T01:54:01.224Z,1024.4
2019-03-30T01:54:27.133Z,1024.41
2019-03-30T01:54:53.126Z,1024.41
2019-03-30T01:55:19.121Z,1024.41
2019-03-30T01:55:45.239Z,1024.42
2019-03-30T01:56:11.130Z,1024.39
2019-03-30T01:56:37.133Z,1024.41
2019-03-30T01:57:03.131Z,1024.4
2019-03-30T01:57:29.138Z,1024.39
2019-03-30T01:57:55.211Z,1024.39
2019-03-30T01:58:21.220Z,1024.37
2019-03-30T01:58:47.127Z,1024.37
2019-03-30T01:59:13.132Z,1024.35
2019-03-30T01:59:39.134Z,1024.36
2019-03-30T02:00:05.230Z,1024.38
2019-03-30T02:00:31.132Z,1024.38
2019-03-30T02:00:57.145Z,1024.38
2019-03-30T02:01:23.274Z,1024.35
2019-03-30T02:01:49.125Z,1024.34
2019-03-30T02:02:15.210Z,1024.29
2019-03-30T02:02:41.134Z,1024.29
2019-03-30T02:03:07.139Z,1024.31
2019-03-30T02:03:33.721Z,1024.3
2019-03-30T02:03:59.148Z,1024.29
2019-03-30T02:04:25.224Z,1024.27
2019-03-30T02:04:51.144Z,1024.29
2019-03-30T02:05:17.152Z,1024.32
2019-03-30T02:05:43.142Z,1024.28
2019-03-30T02:06:09.144Z,1024.27
2019-03-30T02:06:35.224Z,1024.27
2019-03-30T02:07:01.163Z,1024.25
2019-03-30T02:07:27.144Z,1024.24
2019-03-30T02:07:53.230Z,1024.25
2019-03-30T02:08:19.142Z,1024.23
2019-03-30T02:08:45.231Z,1024.21
2019-03-30T02:09:11.149Z,1024.21
2019-03-30T02:09:37.153Z,1024.21
2019-03-30T02:10:03.145Z,1024.22
2019-03-30T02:10:29.157Z,1024.2
2019-03-30T02:10:55.228Z,1024.23
2019-03-30T02:11:21.148Z,1024.19
2019-03-30T02:11:47.145Z,1024.17
2019-03-30T02:12:13.146Z,1024.18
2019-03-30T02:12:39.156Z,1024.17
2019-03-30T02:13:05.233Z,1024.2
2019-03-30T02:13:31.158Z,1024.18
2019-03-30T02:13:57.153Z,1024.19
2019-03-30T02:14:23.238Z,1024.16
2019-03-30T02:14:49.148Z,1024.15
2019-03-30T02:15:15.227Z,1024.17
2019-03-30T02:15:41.156Z,1024.15
2019-03-30T02:16:06.702Z,1024.17
2019-03-30T02:16:32.163Z,1024.15
2019-03-30T02:16:58.165Z,1024.18
2019-03-30T02:17:24.175Z,1024.16
2019-03-30T02:17:50.162Z,1024.16
2019-03-30T02:18:16.244Z,1024.18
2019-03-30T02:18:42.160Z,1024.15
2019-03-30T02:19:08.160Z,1024.14
2019-03-30T02:19:34.169Z,1024.14
2019-03-30T02:20:00.379Z,1024.14
2019-03-30T02:20:26.176Z,1024.15
2019-03-30T02:20:52.250Z,1024.14
2019-03-30T02:21:18.242Z,1024.16
2019-03-30T02:21:44.163Z,1024.17
2019-03-30T02:22:10.166Z,1024.17
2019-03-30T02:22:36.164Z,1024.16
2019-03-30T02:23:02.167Z,1024.16
2019-03-30T02:23:28.169Z,1024.15
2019-03-30T02:23:54.165Z,1024.14
2019-03-30T02:24:20.174Z,1024.12
2019-03-30T02:24:46.231Z,1024.13
2019-03-30T02:25:12.169Z,1024.12
2019-03-30T02:25:38.254Z,1024.1
2019-03-30T02:26:04.169Z,1024.12
2019-03-30T02:26:30.179Z,1024.11
2019-03-30T02:26:56.297Z,1024.09
2019-03-30T02:27:22.170Z,1024.1
2019-03-30T02:27:48.176Z,1024.06
2019-03-30T02:28:14.184Z,1024.08
2019-03-30T02:28:40.182Z,1024.08
2019-03-30T02:29:06.269Z,1024.09
2019-03-30T02:29:32.174Z,1024.08
2019-03-30T02:29:58.174Z,1024.08
2019-03-30T02:30:30.219Z,1024.07
2019-03-30T02:30:56.147Z,1024.06
2019-03-30T02:31:22.221Z,1024.06
2019-03-30T02:31:48.541Z,1024.03
2019-03-30T02:32:24.945Z,1024.06
2019-03-30T02:33:17.600Z,1024.05
2019-03-30T02:33:43.534Z,1024.03
2019-03-30T02:34:25.171Z,1024.01
2019-03-30T02:34:51.094Z,1024.05
2019-03-30T02:35:17.179Z,1023.99
2019-03-30T02:37:22.189Z,1023.98
2019-03-30T02:37:48.106Z,1023.98
2019-03-30T02:38:14.191Z,1023.96
2019-03-30T02:38:40.106Z,1023.96
2019-03-30T02:39:06.335Z,1023.98
2019-03-30T02:39:32.145Z,1023.96
2019-03-30T02:39:58.185Z,1023.97
2019-03-30T02:40:24.196Z,1023.97
2019-03-30T02:40:50.110Z,1023.97
2019-03-30T02:41:16.111Z,1023.97
2019-03-30T02:41:42.116Z,1023.96
2019-03-30T02:42:37.147Z,1023.98
2019-03-30T02:43:03.496Z,1023.98
2019-03-30T02:43:29.156Z,1023.96
2019-03-30T02:43:55.080Z,1023.99
2019-03-30T02:44:21.079Z,1023.97
2019-03-30T02:44:47.078Z,1023.96
2019-03-30T02:45:17.969Z,1023.98
2019-03-30T02:45:56.050Z,1023.98
2019-03-30T02:46:47.703Z,1023.96
2019-03-30T02:47:40.435Z,1023.96
2019-03-30T02:48:44.351Z,1023.96
2019-03-30T02:49:10.283Z,1023.97
2019-03-30T02:49:36.355Z,1023.95
2019-03-30T02:50:26.399Z,1023.93
2019-03-30T02:51:22.804Z,1023.91
2019-03-30T02:51:58.048Z,1023.9
2019-03-30T02:53:53.530Z,1023.89
2019-03-30T02:54:19.612Z,1023.95
2019-03-30T02:56:48.241Z,1023.88
2019-03-30T02:57:14.163Z,1023.9
2019-03-30T02:57:40.255Z,1023.87
2019-03-30T02:58:06.172Z,1023.86
2019-03-30T02:58:32.171Z,1023.87
2019-03-30T02:58:58.174Z,1023.85
2019-03-30T02:59:24.237Z,1023.83
2019-03-30T02:59:50.252Z,1023.86
2019-03-30T03:00:16.167Z,1023.83
2019-03-30T03:00:42.171Z,1023.84
2019-03-30T03:01:08.169Z,1023.83
2019-03-30T03:01:34.178Z,1023.81
2019-03-30T03:02:00.327Z,1023.79
2019-03-30T03:02:26.175Z,1023.76
2019-03-30T03:02:52.180Z,1023.75
2019-03-30T03:03:18.327Z,1023.77
2019-03-30T03:03:44.179Z,1023.75
2019-03-30T03:04:10.267Z,1023.75
2019-03-30T03:04:36.252Z,1023.77
2019-03-30T03:05:02.177Z,1023.74
2019-03-30T03:05:28.174Z,1023.78
2019-03-30T03:05:54.181Z,1023.78
2019-03-30T03:06:20.265Z,1023.76
2019-03-30T03:06:46.186Z,1023.78
2019-03-30T03:07:12.258Z,1023.72
2019-03-30T03:07:38.176Z,1023.72
2019-03-30T03:08:04.183Z,1023.76
2019-03-30T03:08:30.640Z,1023.74
2019-03-30T03:08:56.184Z,1023.72
2019-03-30T03:09:22.192Z,1023.72
2019-03-30T03:09:48.251Z,1023.71
2019-03-30T03:10:14.184Z,1023.71
2019-03-30T03:10:40.266Z,1023.73
2019-03-30T03:11:06.187Z,1023.72
2019-03-30T03:11:32.184Z,1023.72
2019-03-30T03:11:58.203Z,1023.7
2019-03-30T03:12:24.256Z,1023.69
2019-03-30T03:12:50.271Z,1023.69
2019-03-30T03:13:16.190Z,1023.7
2019-03-30T03:13:42.194Z,1023.7
2019-03-30T03:14:08.197Z,1023.68
2019-03-30T03:14:34.194Z,1023.66
2019-03-30T03:15:00.344Z,1023.66
2019-03-30T03:15:26.192Z,1023.64
2019-03-30T03:15:52.198Z,1023.65
2019-03-30T03:16:18.194Z,1023.66
2019-03-30T03:16:44.192Z,1023.65
2019-03-30T03:17:10.293Z,1023.61
2019-03-30T03:17:36.193Z,1023.63
2019-03-30T03:18:02.195Z,1023.63
2019-03-30T03:18:28.193Z,1023.62
2019-03-30T03:18:54.205Z,1023.61
2019-03-30T03:19:20.273Z,1023.59
2019-03-30T03:19:46.198Z,1023.58
2019-03-30T03:20:12.208Z,1023.57
2019-03-30T03:20:38.269Z,1023.55
2019-03-30T03:21:04.195Z,1023.56
2019-03-30T03:21:30.282Z,1023.54
2019-03-30T03:21:56.202Z,1023.54
2019-03-30T03:22:22.201Z,1023.55
2019-03-30T03:22:48.204Z,1023.53
2019-03-30T03:23:14.217Z,1023.49
2019-03-30T03:23:40.356Z,1023.51
2019-03-30T03:24:06.201Z,1023.49
2019-03-30T03:24:32.578Z,1023.48
2019-03-30T03:24:58.218Z,1023.5
2019-03-30T03:25:24.206Z,1023.47
2019-03-30T03:25:50.299Z,1023.47
2019-03-30T03:26:16.282Z,1023.47
2019-03-30T03:26:42.206Z,1023.46
2019-03-30T03:27:08.209Z,1023.45
2019-03-30T03:27:34.209Z,1023.46
2019-03-30T03:28:00.294Z,1023.49
2019-03-30T03:28:26.219Z,1023.46
2019-03-30T03:28:52.283Z,1023.45
2019-03-30T03:29:18.210Z,1023.46
2019-03-30T03:29:44.218Z,1023.43
2019-03-30T03:30:10.299Z,1023.43
2019-03-30T03:30:36.217Z,1023.41
2019-03-30T03:31:02.223Z,1023.43
2019-03-30T03:31:28.282Z,1023.42
2019-03-30T03:31:54.212Z,1023.41
2019-03-30T03:32:20.296Z,1023.41
2019-03-30T03:32:46.223Z,1023.43
2019-03-30T03:33:12.217Z,1023.41
2019-03-30T03:33:38.226Z,1023.42
2019-03-30T03:34:04.294Z,1023.39
2019-03-30T03:34:30.303Z,1023.4
2019-03-30T03:34:56.219Z,1023.4
2019-03-30T03:35:22.221Z,1023.44
2019-03-30T03:35:48.226Z,1023.41
2019-03-30T03:36:14.446Z,1023.4
2019-03-30T03:36:40.368Z,1023.36
2019-03-30T03:37:06.232Z,1023.36
2019-03-30T03:37:32.238Z,1023.34
2019-03-30T03:37:58.232Z,1023.37
2019-03-30T03:38:24.223Z,1023.36
2019-03-30T03:38:50.310Z,1023.36
2019-03-30T03:39:16.306Z,1023.35
2019-03-30T03:39:42.225Z,1023.36
2019-03-30T03:40:08.224Z,1023.35
2019-03-30T03:40:34.244Z,1023.32
2019-03-30T03:41:00.312Z,1023.33
2019-03-30T03:41:26.235Z,1023.33
2019-03-30T03:41:52.309Z,1023.29
2019-03-30T03:42:18.229Z,1023.29
2019-03-30T03:42:44.239Z,1023.3
2019-03-30T03:43:10.324Z,1023.3
2019-03-30T03:43:36.239Z,1023.33
2019-03-30T03:44:02.242Z,1023.3
2019-03-30T03:44:28.302Z,1023.31
2019-03-30T03:44:54.232Z,1023.3
2019-03-30T03:45:20.313Z,1023.27
2019-03-30T03:45:46.234Z,1023.29
2019-03-30T03:46:12.238Z,1023.28
2019-03-30T03:46:38.248Z,1023.28
2019-03-30T03:47:04.306Z,1023.3
2019-03-30T03:47:30.318Z,1023.31
2019-03-30T03:47:56.234Z,1023.3
2019-03-30T03:48:22.239Z,1023.3
2019-03-30T03:48:48.390Z,1023.3
2019-03-30T03:49:14.249Z,1023.28
2019-03-30T03:49:40.386Z,1023.31
2019-03-30T03:50:06.244Z,1023.3
2019-03-30T03:50:32.241Z,1023.29
2019-03-30T03:50:58.240Z,1023.29
2019-03-30T03:51:24.242Z,1023.29
2019-03-30T03:51:50.341Z,1023.29
2019-03-30T03:52:16.321Z,1023.25
2019-03-30T03:52:42.240Z,1023.26
2019-03-30T03:53:08.245Z,1023.23
2019-03-30T03:53:34.247Z,1023.25
2019-03-30T03:54:01.021Z,1023.24
2019-03-30T03:54:26.254Z,1023.22
2019-03-30T03:54:52.330Z,1023.23
2019-03-30T03:55:18.244Z,1023.2
2019-03-30T03:55:44.252Z,1023.19
2019-03-30T03:56:10.337Z,1023.2
2019-03-30T03:56:36.253Z,1023.19
2019-03-30T03:57:02.271Z,1023.19
2019-03-30T03:57:28.323Z,1023.19
2019-03-30T03:57:54.250Z,1023.19
2019-03-30T03:58:20.336Z,1023.17
2019-03-30T03:58:46.254Z,1023.18
2019-03-30T03:59:12.256Z,1023.16
2019-03-30T03:59:38.260Z,1023.17
2019-03-30T04:00:04.461Z,1023.16
2019-03-30T04:00:30.341Z,1023.13
2019-03-30T04:00:56.253Z,1023.13
2019-03-30T04:01:22.253Z,1023.16
2019-03-30T04:01:48.271Z,1023.17
2019-03-30T04:02:14.266Z,1023.16
2019-03-30T04:02:40.417Z,1023.15
2019-03-30T04:03:06.267Z,1023.16
2019-03-30T04:03:32.259Z,1023.1
2019-03-30T04:03:58.258Z,1023.13
2019-03-30T04:04:24.260Z,1023.12
2019-03-30T04:04:50.358Z,1023.14
2019-03-30T04:05:16.337Z,1023.12
2019-03-30T04:05:42.262Z,1023.12
2019-03-30T04:06:08.265Z,1023.14
2019-03-30T04:06:34.277Z,1023.1
2019-03-30T04:07:00.342Z,1023.11
2019-03-30T04:07:26.276Z,1023.09
2019-03-30T04:07:52.346Z,1023.1
2019-03-30T04:08:18.263Z,1023.1
2019-03-30T04:08:44.271Z,1023.08
2019-03-30T04:09:10.350Z,1023.08
2019-03-30T04:09:36.275Z,1023.08
2019-03-30T04:10:02.276Z,1023.06
2019-03-30T04:10:28.345Z,1023.08
2019-03-30T04:10:54.261Z,1023.06
2019-03-30T04:11:20.348Z,1023.07
2019-03-30T04:11:46.292Z,1023.05
2019-03-30T04:12:12.274Z,1023.05
2019-03-30T04:12:38.282Z,1023.06
2019-03-30T04:13:04.345Z,1023.06
2019-03-30T04:13:30.355Z,1023.07
2019-03-30T04:13:56.276Z,1023.04
2019-03-30T04:14:22.296Z,1023.07
2019-03-30T04:14:48.275Z,1023.05
2019-03-30T04:15:14.288Z,1023.07
2019-03-30T04:15:40.428Z,1023.05
2019-03-30T04:16:06.273Z,1023.05
2019-03-30T04:16:32.274Z,1023.07
2019-03-30T04:16:58.278Z,1023.05
2019-03-30T04:17:24.281Z,1023.03
2019-03-30T04:17:50.395Z,1023.02
2019-03-30T04:18:16.357Z,1023.02
2019-03-30T04:18:42.283Z,1023
2019-03-30T04:19:08.285Z,1022.99
2019-03-30T04:19:34.285Z,1022.97
2019-03-30T04:20:00.585Z,1022.98
2019-03-30T04:20:26.289Z,1022.97
2019-03-30T04:20:52.362Z,1022.97
2019-03-30T04:21:18.277Z,1022.95
2019-03-30T04:21:44.292Z,1022.94
2019-03-30T04:22:10.384Z,1022.97
2019-03-30T04:22:36.289Z,1022.96
2019-03-30T04:23:02.294Z,1022.97
2019-03-30T04:23:28.356Z,1022.95
2019-03-30T04:23:54.288Z,1022.98
2019-03-30T04:24:20.369Z,1022.95
2019-03-30T04:24:46.289Z,1022.97
2019-03-30T04:25:12.294Z,1022.97
2019-03-30T04:25:38.308Z,1022.93
2019-03-30T04:26:04.357Z,1022.92
2019-03-30T04:26:30.373Z,1022.92
2019-03-30T04:26:56.295Z,1022.92
2019-03-30T04:27:22.414Z,1022.91
2019-03-30T04:27:48.294Z,1022.89
2019-03-30T04:28:14.302Z,1022.91
2019-03-30T04:28:40.446Z,1022.91
2019-03-30T04:29:06.298Z,1022.87
2019-03-30T04:29:32.564Z,1022.86
2019-03-30T04:29:58.312Z,1022.9
2019-03-30T04:30:24.294Z,1022.9
2019-03-30T04:30:50.383Z,1022.89
2019-03-30T04:31:16.382Z,1022.88
2019-03-30T04:31:42.318Z,1022.88
2019-03-30T04:32:08.303Z,1022.85
2019-03-30T04:32:34.301Z,1022.88
2019-03-30T04:33:00.387Z,1022.85
2019-03-30T04:33:26.319Z,1022.83
2019-03-30T04:33:52.376Z,1022.86
2019-03-30T04:34:18.299Z,1022.84
2019-03-30T04:34:44.306Z,1022.84
2019-03-30T04:35:10.387Z,1022.83
2019-03-30T04:35:36.301Z,1022.86
2019-03-30T04:36:02.316Z,1022.86
2019-03-30T04:36:28.378Z,1022.87
2019-03-30T04:36:54.303Z,1022.87
2019-03-30T04:37:20.390Z,1022.89
2019-03-30T04:37:46.307Z,1022.89
2019-03-30T04:38:12.314Z,1022.87
2019-03-30T04:38:38.317Z,1022.9
2019-03-30T04:39:04.380Z,1022.87
2019-03-30T04:39:30.385Z,1022.86
2019-03-30T04:39:56.311Z,1022.91
2019-03-30T04:40:22.307Z,1022.86
2019-03-30T04:40:48.314Z,1022.86
2019-03-30T04:41:14.323Z,1022.86
2019-03-30T04:41:40.467Z,1022.83
2019-03-30T04:42:06.317Z,1022.84
2019-03-30T04:42:32.627Z,1022.83
2019-03-30T04:42:58.318Z,1022.83
2019-03-30T04:43:24.336Z,1022.83
2019-03-30T04:43:50.406Z,1022.84
2019-03-30T04:44:16.395Z,1022.81
2019-03-30T04:44:42.316Z,1022.81
2019-03-30T04:45:08.316Z,1022.82
2019-03-30T04:45:34.323Z,1022.8
2019-03-30T04:46:00.405Z,1022.83
2019-03-30T04:46:26.328Z,1022.81
2019-03-30T04:46:52.430Z,1022.8
2019-03-30T04:47:18.321Z,1022.79
2019-03-30T04:47:44.326Z,1022.79
2019-03-30T04:48:10.402Z,1022.76
2019-03-30T04:48:36.323Z,1022.79
2019-03-30T04:49:02.332Z,1022.76
2019-03-30T04:49:28.394Z,1022.78
2019-03-30T04:49:54.320Z,1022.78
2019-03-30T04:50:20.412Z,1022.75
2019-03-30T04:50:46.333Z,1022.75
2019-03-30T04:51:12.323Z,1022.75
2019-03-30T04:51:38.335Z,1022.76
2019-03-30T04:52:04.417Z,1022.75
2019-03-30T04:52:30.413Z,1022.74
2019-03-30T04:52:56.328Z,1022.75
2019-03-30T04:53:22.336Z,1022.75
2019-03-30T04:53:48.359Z,1022.73
2019-03-30T04:54:14.336Z,1022.72
2019-03-30T04:54:40.492Z,1022.73
2019-03-30T04:55:06.337Z,1022.72
2019-03-30T04:55:32.341Z,1022.71
2019-03-30T04:55:58.336Z,1022.72
2019-03-30T04:56:24.411Z,1022.72
2019-03-30T04:56:50.425Z,1022.73
2019-03-30T04:57:16.338Z,1022.71
2019-03-30T04:57:42.336Z,1022.7
2019-03-30T04:58:08.339Z,1022.72
2019-03-30T04:58:34.336Z,1022.7
2019-03-30T04:59:00.415Z,1022.7
2019-03-30T04:59:26.335Z,1022.72
2019-03-30T04:59:52.338Z,1022.72
2019-03-30T05:00:18.338Z,1022.73
2019-03-30T05:00:44.334Z,1022.72
2019-03-30T05:01:10.430Z,1022.73
2019-03-30T05:01:36.341Z,1022.74
2019-03-30T05:02:02.620Z,1022.73
2019-03-30T05:02:28.341Z,1022.78
2019-03-30T05:02:54.343Z,1022.74
2019-03-30T05:03:20.424Z,1022.75
2019-03-30T05:03:46.339Z,1022.75
2019-03-30T05:04:12.341Z,1022.76
2019-03-30T05:04:38.353Z,1022.76
2019-03-30T05:05:04.343Z,1022.77
2019-03-30T05:05:30.428Z,1022.72
2019-03-30T05:05:56.350Z,1022.73
2019-03-30T05:06:22.350Z,1022.73
2019-03-30T05:06:48.350Z,1022.73
2019-03-30T05:07:14.349Z,1022.74
2019-03-30T05:07:40.427Z,1022.72
2019-03-30T05:08:06.356Z,1022.72
2019-03-30T05:08:32.348Z,1022.7
2019-03-30T05:08:58.349Z,1022.69
2019-03-30T05:09:24.354Z,1022.68
2019-03-30T05:09:50.439Z,1022.68
2019-03-30T05:10:16.353Z,1022.66
2019-03-30T05:10:42.353Z,1022.67
2019-03-30T05:11:08.355Z,1022.68
2019-03-30T05:11:34.358Z,1022.66
2019-03-30T05:12:00.440Z,1022.66
2019-03-30T05:12:26.360Z,1022.68
2019-03-30T05:12:52.353Z,1022.65
2019-03-30T05:13:18.354Z,1022.62
2019-03-30T05:13:44.353Z,1022.62
2019-03-30T05:14:10.445Z,1022.63
2019-03-30T05:14:36.359Z,1022.63
2019-03-30T05:15:02.360Z,1022.63
2019-03-30T05:15:28.362Z,1022.65
2019-03-30T05:15:54.363Z,1022.65
2019-03-30T05:16:20.444Z,1022.64
2019-03-30T05:16:46.364Z,1022.63
2019-03-30T05:17:12.922Z,1022.64
2019-03-30T05:17:38.367Z,1022.64
2019-03-30T05:18:04.361Z,1022.63
2019-03-30T05:18:30.445Z,1022.64
2019-03-30T05:18:56.366Z,1022.66
2019-03-30T05:19:22.370Z,1022.63
2019-03-30T05:19:48.366Z,1022.64
2019-03-30T05:20:14.372Z,1022.62
2019-03-30T05:20:40.449Z,1022.6
2019-03-30T05:21:06.445Z,1022.63
2019-03-30T05:21:32.369Z,1022.62
2019-03-30T05:21:58.375Z,1022.61
2019-03-30T05:22:24.371Z,1022.61
2019-03-30T05:22:50.473Z,1022.62
2019-03-30T05:23:16.383Z,1022.61
2019-03-30T05:23:42.459Z,1022.61
2019-03-30T05:24:08.368Z,1022.62
2019-03-30T05:24:34.374Z,1022.62